sensor_id;sensor_type;location;lat;lon;timestamp;P1;durP1;ratioP1;P2;durP2;ratioP2
2486;SDS011;1254;49.144;8.212;2024-01-30T00:01:29;22.02;;;16.40;;
2486;SDS011;1254;49.144;8.212;2024-01-30T00:03:58;27.33;;;18.35;;
2486;SDS011;1254;49.144;8.212;2024-01-30T00:06:27;30.10;;;17.98;;
2486;SDS011;1254;49.144;8.212;2024-01-30T00:08:55;26.65;;;16.92;;
2486;SDS011;1254;49.144;8.212;2024-01-30T00:11:23;25.13;;;17.50;;
2486;SDS011;1254;49.144;8.212;2024-01-30T00:13:52;25.30;;;17.30;;
2486;SDS011;1254;49.144;8.212;2024-01-30T00:16:20;31.08;;;17.70;;
2486;SDS011;1254;49.144;8.212;2024-01-30T00:18:50;25.98;;;16.80;;
2486;SDS011;1254;49.144;8.212;2024-01-30T00:21:20;28.65;;;16.15;;
2486;SDS011;1254;49.144;8.212;2024-01-30T00:23:48;20.77;;;16.38;;
2486;SDS011;1254;49.144;8.212;2024-01-30T00:26:16;23.60;;;16.30;;
2486;SDS011;1254;49.144;8.212;2024-01-30T00:28:44;25.10;;;16.70;;
2486;SDS011;1254;49.144;8.212;2024-01-30T00:31:12;27.10;;;16.90;;
2486;SDS011;1254;49.144;8.212;2024-01-30T00:33:41;28.33;;;16.48;;
2486;SDS011;1254;49.144;8.212;2024-01-30T00:36:09;33.22;;;19.80;;
2486;SDS011;1254;49.144;8.212;2024-01-30T00:38:39;28.30;;;18.48;;
2486;SDS011;1254;49.144;8.212;2024-01-30T00:41:07;31.13;;;18.98;;
2486;SDS011;1254;49.144;8.212;2024-01-30T00:43:36;33.20;;;19.70;;
2486;SDS011;1254;49.144;8.212;2024-01-30T00:46:04;26.33;;;16.95;;
2486;SDS011;1254;49.144;8.212;2024-01-30T00:48:32;24.92;;;17.55;;
2486;SDS011;1254;49.144;8.212;2024-01-30T00:51:01;26.85;;;17.60;;
2486;SDS011;1254;49.144;8.212;2024-01-30T00:53:29;29.45;;;17.50;;
2486;SDS011;1254;49.144;8.212;2024-01-30T00:55:58;27.88;;;17.27;;
2486;SDS011;1254;49.144;8.212;2024-01-30T00:58:27;48.00;;;24.38;;
2486;SDS011;1254;49.144;8.212;2024-01-30T01:00:55;47.95;;;22.75;;
2486;SDS011;1254;49.144;8.212;2024-01-30T01:03:23;35.50;;;20.77;;
2486;SDS011;1254;49.144;8.212;2024-01-30T01:05:51;38.83;;;21.27;;
2486;SDS011;1254;49.144;8.212;2024-01-30T01:08:19;32.60;;;17.95;;
2486;SDS011;1254;49.144;8.212;2024-01-30T01:10:48;31.92;;;18.00;;
2486;SDS011;1254;49.144;8.212;2024-01-30T01:13:17;37.72;;;18.20;;
2486;SDS011;1254;49.144;8.212;2024-01-30T01:15:46;25.20;;;17.33;;
2486;SDS011;1254;49.144;8.212;2024-01-30T01:18:14;37.80;;;20.70;;
2486;SDS011;1254;49.144;8.212;2024-01-30T01:20:43;30.70;;;19.40;;
2486;SDS011;1254;49.144;8.212;2024-01-30T01:23:11;23.98;;;17.55;;
2486;SDS011;1254;49.144;8.212;2024-01-30T01:25:39;30.77;;;18.80;;
2486;SDS011;1254;49.144;8.212;2024-01-30T01:28:07;28.13;;;16.33;;
2486;SDS011;1254;49.144;8.212;2024-01-30T01:30:37;29.35;;;16.92;;
2486;SDS011;1254;49.144;8.212;2024-01-30T01:33:05;32.92;;;19.48;;
2486;SDS011;1254;49.144;8.212;2024-01-30T01:35:33;27.48;;;17.98;;
2486;SDS011;1254;49.144;8.212;2024-01-30T01:38:01;19.83;;;15.35;;
2486;SDS011;1254;49.144;8.212;2024-01-30T01:40:29;30.90;;;16.85;;
2486;SDS011;1254;49.144;8.212;2024-01-30T01:42:58;26.17;;;15.55;;
2486;SDS011;1254;49.144;8.212;2024-01-30T01:45:26;22.65;;;15.45;;
2486;SDS011;1254;49.144;8.212;2024-01-30T01:47:58;30.45;;;17.45;;
2486;SDS011;1254;49.144;8.212;2024-01-30T01:50:26;31.15;;;18.15;;
2486;SDS011;1254;49.144;8.212;2024-01-30T01:52:54;26.42;;;17.95;;
2486;SDS011;1254;49.144;8.212;2024-01-30T01:55:23;36.95;;;20.35;;
2486;SDS011;1254;49.144;8.212;2024-01-30T01:57:54;38.00;;;19.25;;
2486;SDS011;1254;49.144;8.212;2024-01-30T02:00:22;57.53;;;25.33;;
2486;SDS011;1254;49.144;8.212;2024-01-30T02:02:51;32.97;;;20.02;;
2486;SDS011;1254;49.144;8.212;2024-01-30T02:05:21;37.90;;;18.90;;
2486;SDS011;1254;49.144;8.212;2024-01-30T02:07:51;27.75;;;17.98;;
2486;SDS011;1254;49.144;8.212;2024-01-30T02:10:19;25.58;;;17.38;;
2486;SDS011;1254;49.144;8.212;2024-01-30T02:12:48;28.20;;;17.98;;
2486;SDS011;1254;49.144;8.212;2024-01-30T02:15:16;30.23;;;17.88;;
2486;SDS011;1254;49.144;8.212;2024-01-30T02:17:44;32.88;;;19.60;;
2486;SDS011;1254;49.144;8.212;2024-01-30T02:20:12;24.60;;;16.48;;
2486;SDS011;1254;49.144;8.212;2024-01-30T02:22:42;27.88;;;17.52;;
2486;SDS011;1254;49.144;8.212;2024-01-30T02:25:10;37.65;;;18.05;;
2486;SDS011;1254;49.144;8.212;2024-01-30T02:27:38;37.85;;;20.40;;
2486;SDS011;1254;49.144;8.212;2024-01-30T02:30:07;38.17;;;20.08;;
2486;SDS011;1254;49.144;8.212;2024-01-30T02:32:35;40.78;;;20.42;;
2486;SDS011;1254;49.144;8.212;2024-01-30T02:35:04;42.60;;;20.75;;
2486;SDS011;1254;49.144;8.212;2024-01-30T02:37:32;35.20;;;18.02;;
2486;SDS011;1254;49.144;8.212;2024-01-30T02:40:01;33.55;;;17.80;;
2486;SDS011;1254;49.144;8.212;2024-01-30T02:42:29;32.63;;;18.65;;
2486;SDS011;1254;49.144;8.212;2024-01-30T02:44:58;35.72;;;20.80;;
2486;SDS011;1254;49.144;8.212;2024-01-30T02:47:26;35.38;;;18.05;;
2486;SDS011;1254;49.144;8.212;2024-01-30T02:49:54;36.30;;;18.42;;
2486;SDS011;1254;49.144;8.212;2024-01-30T02:52:22;30.80;;;17.48;;
2486;SDS011;1254;49.144;8.212;2024-01-30T02:54:50;35.97;;;18.25;;
2486;SDS011;1254;49.144;8.212;2024-01-30T02:57:20;42.13;;;20.10;;
2486;SDS011;1254;49.144;8.212;2024-01-30T02:59:48;51.25;;;22.08;;
2486;SDS011;1254;49.144;8.212;2024-01-30T03:02:16;41.65;;;21.48;;
2486;SDS011;1254;49.144;8.212;2024-01-30T03:04:44;49.40;;;21.50;;
2486;SDS011;1254;49.144;8.212;2024-01-30T03:07:12;58.40;;;24.73;;
2486;SDS011;1254;49.144;8.212;2024-01-30T03:09:41;72.45;;;24.58;;
2486;SDS011;1254;49.144;8.212;2024-01-30T03:12:10;63.80;;;28.83;;
2486;SDS011;1254;49.144;8.212;2024-01-30T03:14:39;56.30;;;23.75;;
2486;SDS011;1254;49.144;8.212;2024-01-30T03:17:08;41.20;;;21.38;;
2486;SDS011;1254;49.144;8.212;2024-01-30T03:19:36;48.40;;;22.27;;
2486;SDS011;1254;49.144;8.212;2024-01-30T03:22:04;44.05;;;22.88;;
2486;SDS011;1254;49.144;8.212;2024-01-30T03:24:32;43.20;;;22.88;;
2486;SDS011;1254;49.144;8.212;2024-01-30T03:27:01;35.30;;;21.17;;
2486;SDS011;1254;49.144;8.212;2024-01-30T03:29:32;35.78;;;18.77;;
2486;SDS011;1254;49.144;8.212;2024-01-30T03:32:02;34.25;;;19.65;;
2486;SDS011;1254;49.144;8.212;2024-01-30T03:34:31;31.70;;;21.55;;
2486;SDS011;1254;49.144;8.212;2024-01-30T03:36:59;28.98;;;17.23;;
2486;SDS011;1254;49.144;8.212;2024-01-30T03:39:27;27.60;;;19.92;;
2486;SDS011;1254;49.144;8.212;2024-01-30T03:41:55;22.55;;;16.73;;
2486;SDS011;1254;49.144;8.212;2024-01-30T03:44:23;27.25;;;17.27;;
2486;SDS011;1254;49.144;8.212;2024-01-30T03:46:51;23.77;;;15.77;;
2486;SDS011;1254;49.144;8.212;2024-01-30T03:49:21;21.08;;;15.88;;
2486;SDS011;1254;49.144;8.212;2024-01-30T03:51:49;22.95;;;16.45;;
2486;SDS011;1254;49.144;8.212;2024-01-30T03:54:17;27.65;;;16.02;;
2486;SDS011;1254;49.144;8.212;2024-01-30T03:56:46;26.10;;;17.75;;
2486;SDS011;1254;49.144;8.212;2024-01-30T03:59:14;25.60;;;17.67;;
2486;SDS011;1254;49.144;8.212;2024-01-30T04:01:46;27.65;;;18.88;;
2486;SDS011;1254;49.144;8.212;2024-01-30T04:04:14;32.60;;;20.75;;
2486;SDS011;1254;49.144;8.212;2024-01-30T04:06:43;36.38;;;24.17;;
2486;SDS011;1254;49.144;8.212;2024-01-30T04:09:12;31.83;;;21.70;;
2486;SDS011;1254;49.144;8.212;2024-01-30T04:11:40;32.72;;;22.35;;
2486;SDS011;1254;49.144;8.212;2024-01-30T04:14:09;33.80;;;22.25;;
2486;SDS011;1254;49.144;8.212;2024-01-30T04:16:37;29.15;;;20.98;;
2486;SDS011;1254;49.144;8.212;2024-01-30T04:19:05;30.27;;;20.92;;
2486;SDS011;1254;49.144;8.212;2024-01-30T04:21:33;26.98;;;20.17;;
2486;SDS011;1254;49.144;8.212;2024-01-30T04:24:03;27.05;;;19.48;;
2486;SDS011;1254;49.144;8.212;2024-01-30T04:26:31;30.88;;;21.02;;
2486;SDS011;1254;49.144;8.212;2024-01-30T04:29:00;26.65;;;20.40;;
2486;SDS011;1254;49.144;8.212;2024-01-30T04:31:28;28.35;;;20.63;;
2486;SDS011;1254;49.144;8.212;2024-01-30T04:33:56;31.55;;;21.90;;
2486;SDS011;1254;49.144;8.212;2024-01-30T04:36:24;35.22;;;24.80;;
2486;SDS011;1254;49.144;8.212;2024-01-30T04:38:52;31.05;;;20.75;;
2486;SDS011;1254;49.144;8.212;2024-01-30T04:41:22;29.02;;;20.98;;
2486;SDS011;1254;49.144;8.212;2024-01-30T04:43:52;29.77;;;20.55;;
2486;SDS011;1254;49.144;8.212;2024-01-30T04:46:20;28.73;;;20.83;;
2486;SDS011;1254;49.144;8.212;2024-01-30T04:48:48;29.40;;;21.25;;
2486;SDS011;1254;49.144;8.212;2024-01-30T04:51:16;30.15;;;20.20;;
2486;SDS011;1254;49.144;8.212;2024-01-30T04:53:44;39.38;;;25.70;;
2486;SDS011;1254;49.144;8.212;2024-01-30T04:56:13;42.78;;;25.35;;
2486;SDS011;1254;49.144;8.212;2024-01-30T04:58:42;44.22;;;27.23;;
2486;SDS011;1254;49.144;8.212;2024-01-30T05:01:14;41.80;;;27.13;;
2486;SDS011;1254;49.144;8.212;2024-01-30T05:03:43;38.85;;;24.98;;
2486;SDS011;1254;49.144;8.212;2024-01-30T05:06:11;35.17;;;24.40;;
2486;SDS011;1254;49.144;8.212;2024-01-30T05:08:39;34.17;;;22.63;;
2486;SDS011;1254;49.144;8.212;2024-01-30T05:11:07;33.35;;;22.85;;
2486;SDS011;1254;49.144;8.212;2024-01-30T05:13:37;33.80;;;22.75;;
2486;SDS011;1254;49.144;8.212;2024-01-30T05:16:06;36.58;;;20.48;;
2486;SDS011;1254;49.144;8.212;2024-01-30T05:18:35;31.70;;;20.45;;
2486;SDS011;1254;49.144;8.212;2024-01-30T05:21:03;28.30;;;20.33;;
2486;SDS011;1254;49.144;8.212;2024-01-30T05:23:31;30.10;;;20.02;;
2486;SDS011;1254;49.144;8.212;2024-01-30T05:25:59;23.88;;;18.98;;
2486;SDS011;1254;49.144;8.212;2024-01-30T05:28:28;26.98;;;20.50;;
2486;SDS011;1254;49.144;8.212;2024-01-30T05:30:57;27.40;;;20.77;;
2486;SDS011;1254;49.144;8.212;2024-01-30T05:33:26;26.85;;;18.83;;
2486;SDS011;1254;49.144;8.212;2024-01-30T05:35:54;25.73;;;19.10;;
2486;SDS011;1254;49.144;8.212;2024-01-30T05:38:23;33.15;;;21.75;;
2486;SDS011;1254;49.144;8.212;2024-01-30T05:40:51;28.75;;;20.13;;
2486;SDS011;1254;49.144;8.212;2024-01-30T05:43:19;30.10;;;20.40;;
2486;SDS011;1254;49.144;8.212;2024-01-30T05:45:48;31.65;;;20.70;;
2486;SDS011;1254;49.144;8.212;2024-01-30T05:48:16;28.63;;;19.77;;
2486;SDS011;1254;49.144;8.212;2024-01-30T05:50:46;28.05;;;20.38;;
2486;SDS011;1254;49.144;8.212;2024-01-30T05:53:14;29.85;;;19.85;;
2486;SDS011;1254;49.144;8.212;2024-01-30T05:55:42;34.15;;;20.10;;
2486;SDS011;1254;49.144;8.212;2024-01-30T05:58:11;27.15;;;18.75;;
2486;SDS011;1254;49.144;8.212;2024-01-30T06:00:40;27.90;;;20.45;;
2486;SDS011;1254;49.144;8.212;2024-01-30T06:03:08;34.22;;;20.50;;
2486;SDS011;1254;49.144;8.212;2024-01-30T06:05:36;30.38;;;21.38;;
2486;SDS011;1254;49.144;8.212;2024-01-30T06:08:06;34.45;;;23.75;;
2486;SDS011;1254;49.144;8.212;2024-01-30T06:10:35;30.15;;;19.92;;
2486;SDS011;1254;49.144;8.212;2024-01-30T06:13:03;35.75;;;19.73;;
2486;SDS011;1254;49.144;8.212;2024-01-30T06:15:31;29.30;;;19.05;;
2486;SDS011;1254;49.144;8.212;2024-01-30T06:17:59;31.52;;;22.02;;
2486;SDS011;1254;49.144;8.212;2024-01-30T06:20:28;27.27;;;19.83;;
2486;SDS011;1254;49.144;8.212;2024-01-30T06:22:57;29.08;;;20.27;;
2486;SDS011;1254;49.144;8.212;2024-01-30T06:25:26;32.75;;;20.58;;
2486;SDS011;1254;49.144;8.212;2024-01-30T06:27:54;30.40;;;23.08;;
2486;SDS011;1254;49.144;8.212;2024-01-30T06:30:23;36.47;;;24.92;;
2486;SDS011;1254;49.144;8.212;2024-01-30T06:32:51;39.65;;;26.90;;
2486;SDS011;1254;49.144;8.212;2024-01-30T06:35:19;38.55;;;25.55;;
2486;SDS011;1254;49.144;8.212;2024-01-30T06:37:48;36.17;;;24.80;;
2486;SDS011;1254;49.144;8.212;2024-01-30T06:40:16;36.47;;;26.00;;
2486;SDS011;1254;49.144;8.212;2024-01-30T06:42:46;36.70;;;24.50;;
2486;SDS011;1254;49.144;8.212;2024-01-30T06:45:14;36.28;;;25.42;;
2486;SDS011;1254;49.144;8.212;2024-01-30T06:47:42;36.70;;;24.70;;
2486;SDS011;1254;49.144;8.212;2024-01-30T06:50:11;36.75;;;23.85;;
2486;SDS011;1254;49.144;8.212;2024-01-30T06:52:39;32.53;;;23.27;;
2486;SDS011;1254;49.144;8.212;2024-01-30T06:55:08;34.35;;;23.45;;
2486;SDS011;1254;49.144;8.212;2024-01-30T06:57:36;35.55;;;22.67;;
2486;SDS011;1254;49.144;8.212;2024-01-30T07:00:06;32.17;;;26.00;;
2486;SDS011;1254;49.144;8.212;2024-01-30T07:02:35;32.42;;;23.27;;
2486;SDS011;1254;49.144;8.212;2024-01-30T07:05:03;36.15;;;23.80;;
2486;SDS011;1254;49.144;8.212;2024-01-30T07:07:32;34.05;;;21.55;;
2486;SDS011;1254;49.144;8.212;2024-01-30T07:10:00;34.72;;;22.30;;
2486;SDS011;1254;49.144;8.212;2024-01-30T07:12:28;27.00;;;21.35;;
2486;SDS011;1254;49.144;8.212;2024-01-30T07:14:58;27.63;;;18.73;;
2486;SDS011;1254;49.144;8.212;2024-01-30T07:17:28;37.08;;;25.52;;
2486;SDS011;1254;49.144;8.212;2024-01-30T07:19:56;47.35;;;28.92;;
2486;SDS011;1254;49.144;8.212;2024-01-30T07:22:25;43.10;;;24.48;;
2486;SDS011;1254;49.144;8.212;2024-01-30T07:24:53;39.25;;;22.33;;
2486;SDS011;1254;49.144;8.212;2024-01-30T07:27:21;29.83;;;20.23;;
2486;SDS011;1254;49.144;8.212;2024-01-30T07:29:50;27.33;;;20.58;;
2486;SDS011;1254;49.144;8.212;2024-01-30T07:32:18;29.73;;;20.27;;
2486;SDS011;1254;49.144;8.212;2024-01-30T07:34:47;32.00;;;20.00;;
2486;SDS011;1254;49.144;8.212;2024-01-30T07:37:16;32.08;;;21.25;;
2486;SDS011;1254;49.144;8.212;2024-01-30T07:39:45;33.28;;;23.90;;
2486;SDS011;1254;49.144;8.212;2024-01-30T07:42:13;28.30;;;20.50;;
2486;SDS011;1254;49.144;8.212;2024-01-30T07:44:42;38.22;;;23.75;;
2486;SDS011;1254;49.144;8.212;2024-01-30T07:47:10;30.52;;;23.20;;
2486;SDS011;1254;49.144;8.212;2024-01-30T07:49:38;27.35;;;21.35;;
2486;SDS011;1254;49.144;8.212;2024-01-30T07:52:08;34.10;;;22.75;;
2486;SDS011;1254;49.144;8.212;2024-01-30T07:54:39;36.25;;;21.83;;
2486;SDS011;1254;49.144;8.212;2024-01-30T07:57:08;36.03;;;23.42;;
2486;SDS011;1254;49.144;8.212;2024-01-30T07:59:36;38.55;;;23.27;;
2486;SDS011;1254;49.144;8.212;2024-01-30T08:02:05;57.97;;;31.10;;
2486;SDS011;1254;49.144;8.212;2024-01-30T08:04:34;34.95;;;22.85;;
2486;SDS011;1254;49.144;8.212;2024-01-30T08:07:02;38.63;;;23.63;;
2486;SDS011;1254;49.144;8.212;2024-01-30T08:09:32;45.28;;;27.50;;
2486;SDS011;1254;49.144;8.212;2024-01-30T08:12:00;41.17;;;25.23;;
2486;SDS011;1254;49.144;8.212;2024-01-30T08:14:28;47.25;;;26.75;;
2486;SDS011;1254;49.144;8.212;2024-01-30T08:16:57;51.70;;;28.88;;
2486;SDS011;1254;49.144;8.212;2024-01-30T08:19:25;47.35;;;30.15;;
2486;SDS011;1254;49.144;8.212;2024-01-30T08:21:53;54.42;;;34.38;;
2486;SDS011;1254;49.144;8.212;2024-01-30T08:24:21;46.72;;;31.23;;
2486;SDS011;1254;49.144;8.212;2024-01-30T08:26:51;47.72;;;32.47;;
2486;SDS011;1254;49.144;8.212;2024-01-30T08:29:19;40.67;;;28.35;;
2486;SDS011;1254;49.144;8.212;2024-01-30T08:31:47;40.75;;;25.15;;
2486;SDS011;1254;49.144;8.212;2024-01-30T08:34:16;45.58;;;28.02;;
2486;SDS011;1254;49.144;8.212;2024-01-30T08:36:44;48.35;;;30.13;;
2486;SDS011;1254;49.144;8.212;2024-01-30T08:39:12;50.00;;;30.05;;
2486;SDS011;1254;49.144;8.212;2024-01-30T08:41:40;47.22;;;28.50;;
2486;SDS011;1254;49.144;8.212;2024-01-30T08:44:10;47.13;;;29.67;;
2486;SDS011;1254;49.144;8.212;2024-01-30T08:46:38;56.00;;;32.38;;
2486;SDS011;1254;49.144;8.212;2024-01-30T08:49:06;49.92;;;31.30;;
2486;SDS011;1254;49.144;8.212;2024-01-30T08:51:34;49.22;;;29.65;;
2486;SDS011;1254;49.144;8.212;2024-01-30T08:54:03;71.45;;;29.67;;
2486;SDS011;1254;49.144;8.212;2024-01-30T08:56:31;40.67;;;27.85;;
2486;SDS011;1254;49.144;8.212;2024-01-30T08:58:59;40.38;;;25.33;;
2486;SDS011;1254;49.144;8.212;2024-01-30T09:01:29;50.08;;;25.95;;
2486;SDS011;1254;49.144;8.212;2024-01-30T09:03:57;34.60;;;23.55;;
2486;SDS011;1254;49.144;8.212;2024-01-30T09:06:25;35.47;;;24.30;;
2486;SDS011;1254;49.144;8.212;2024-01-30T09:08:55;37.60;;;25.45;;
2486;SDS011;1254;49.144;8.212;2024-01-30T09:11:24;35.72;;;24.55;;
2486;SDS011;1254;49.144;8.212;2024-01-30T09:13:52;32.25;;;23.55;;
2486;SDS011;1254;49.144;8.212;2024-01-30T09:16:20;29.38;;;22.05;;
2486;SDS011;1254;49.144;8.212;2024-01-30T09:18:50;34.65;;;25.00;;
2486;SDS011;1254;49.144;8.212;2024-01-30T09:21:18;39.63;;;26.00;;
2486;SDS011;1254;49.144;8.212;2024-01-30T09:23:46;34.85;;;24.23;;
2486;SDS011;1254;49.144;8.212;2024-01-30T09:26:14;39.20;;;25.88;;
2486;SDS011;1254;49.144;8.212;2024-01-30T09:28:42;34.80;;;26.05;;
2486;SDS011;1254;49.144;8.212;2024-01-30T09:31:11;33.58;;;24.60;;
2486;SDS011;1254;49.144;8.212;2024-01-30T09:33:39;28.35;;;21.80;;
2486;SDS011;1254;49.144;8.212;2024-01-30T09:36:09;28.33;;;22.50;;
2486;SDS011;1254;49.144;8.212;2024-01-30T09:38:37;31.60;;;22.95;;
2486;SDS011;1254;49.144;8.212;2024-01-30T09:41:07;34.20;;;23.23;;
2486;SDS011;1254;49.144;8.212;2024-01-30T09:43:37;33.83;;;22.40;;
2486;SDS011;1254;49.144;8.212;2024-01-30T09:46:06;39.92;;;24.83;;
2486;SDS011;1254;49.144;8.212;2024-01-30T09:48:35;35.97;;;23.98;;
2486;SDS011;1254;49.144;8.212;2024-01-30T09:51:04;28.20;;;21.23;;
2486;SDS011;1254;49.144;8.212;2024-01-30T09:53:34;27.67;;;19.95;;
2486;SDS011;1254;49.144;8.212;2024-01-30T09:56:02;37.75;;;21.98;;
2486;SDS011;1254;49.144;8.212;2024-01-30T09:58:31;31.90;;;23.38;;
2486;SDS011;1254;49.144;8.212;2024-01-30T10:00:59;27.15;;;22.35;;
2486;SDS011;1254;49.144;8.212;2024-01-30T10:03:27;28.40;;;21.50;;
2486;SDS011;1254;49.144;8.212;2024-01-30T10:05:55;29.35;;;20.70;;
2486;SDS011;1254;49.144;8.212;2024-01-30T10:08:24;32.10;;;23.17;;
2486;SDS011;1254;49.144;8.212;2024-01-30T10:10:57;32.53;;;24.35;;
2486;SDS011;1254;49.144;8.212;2024-01-30T10:13:25;30.40;;;21.35;;
2486;SDS011;1254;49.144;8.212;2024-01-30T10:15:53;27.25;;;19.58;;
2486;SDS011;1254;49.144;8.212;2024-01-30T10:18:22;28.75;;;20.83;;
2486;SDS011;1254;49.144;8.212;2024-01-30T10:20:51;24.80;;;18.75;;
2486;SDS011;1254;49.144;8.212;2024-01-30T10:23:20;22.42;;;17.83;;
2486;SDS011;1254;49.144;8.212;2024-01-30T10:25:48;27.33;;;18.85;;
2486;SDS011;1254;49.144;8.212;2024-01-30T10:28:19;21.73;;;18.05;;
2486;SDS011;1254;49.144;8.212;2024-01-30T10:30:56;20.75;;;16.38;;
2486;SDS011;1254;49.144;8.212;2024-01-30T10:33:25;20.67;;;15.73;;
2486;SDS011;1254;49.144;8.212;2024-01-30T10:35:55;19.23;;;14.73;;
2486;SDS011;1254;49.144;8.212;2024-01-30T10:38:27;19.05;;;13.00;;
2486;SDS011;1254;49.144;8.212;2024-01-30T10:40:56;16.65;;;13.55;;
2486;SDS011;1254;49.144;8.212;2024-01-30T10:43:31;15.80;;;13.55;;
2486;SDS011;1254;49.144;8.212;2024-01-30T10:46:03;17.55;;;12.60;;
2486;SDS011;1254;49.144;8.212;2024-01-30T10:48:32;14.07;;;11.25;;
2486;SDS011;1254;49.144;8.212;2024-01-30T10:51:06;14.70;;;11.93;;
2486;SDS011;1254;49.144;8.212;2024-01-30T10:53:34;13.55;;;11.02;;
2486;SDS011;1254;49.144;8.212;2024-01-30T10:56:02;14.45;;;11.48;;
2486;SDS011;1254;49.144;8.212;2024-01-30T10:58:32;13.80;;;11.52;;
2486;SDS011;1254;49.144;8.212;2024-01-30T11:01:00;10.82;;;9.73;;
2486;SDS011;1254;49.144;8.212;2024-01-30T11:03:29;12.18;;;9.35;;
2486;SDS011;1254;49.144;8.212;2024-01-30T11:06:00;10.73;;;9.68;;
2486;SDS011;1254;49.144;8.212;2024-01-30T11:08:31;10.70;;;9.55;;
2486;SDS011;1254;49.144;8.212;2024-01-30T11:10:59;14.93;;;9.43;;
2486;SDS011;1254;49.144;8.212;2024-01-30T11:13:28;10.05;;;8.82;;
2486;SDS011;1254;49.144;8.212;2024-01-30T11:16:01;10.63;;;9.55;;
2486;SDS011;1254;49.144;8.212;2024-01-30T11:18:30;12.05;;;8.57;;
2486;SDS011;1254;49.144;8.212;2024-01-30T11:20:59;11.80;;;10.60;;
2486;SDS011;1254;49.144;8.212;2024-01-30T11:23:28;11.23;;;10.13;;
2486;SDS011;1254;49.144;8.212;2024-01-30T11:25:56;10.73;;;9.82;;
2486;SDS011;1254;49.144;8.212;2024-01-30T11:28:25;11.85;;;10.73;;
2486;SDS011;1254;49.144;8.212;2024-01-30T11:31:04;12.32;;;10.90;;
2486;SDS011;1254;49.144;8.212;2024-01-30T11:33:33;13.32;;;10.70;;
2486;SDS011;1254;49.144;8.212;2024-01-30T11:36:01;10.48;;;9.65;;
2486;SDS011;1254;49.144;8.212;2024-01-30T11:38:33;18.33;;;10.70;;
2486;SDS011;1254;49.144;8.212;2024-01-30T11:41:01;10.77;;;9.95;;
2486;SDS011;1254;49.144;8.212;2024-01-30T11:43:30;11.00;;;10.15;;
2486;SDS011;1254;49.144;8.212;2024-01-30T11:45:59;11.25;;;10.27;;
2486;SDS011;1254;49.144;8.212;2024-01-30T11:48:30;11.40;;;10.45;;
2486;SDS011;1254;49.144;8.212;2024-01-30T11:50:58;12.27;;;10.47;;
2486;SDS011;1254;49.144;8.212;2024-01-30T11:53:26;11.10;;;10.10;;
2486;SDS011;1254;49.144;8.212;2024-01-30T11:55:55;11.88;;;10.38;;
2486;SDS011;1254;49.144;8.212;2024-01-30T11:58:24;10.90;;;9.95;;
2486;SDS011;1254;49.144;8.212;2024-01-30T12:00:53;10.83;;;9.93;;
2486;SDS011;1254;49.144;8.212;2024-01-30T12:03:22;11.77;;;10.90;;
2486;SDS011;1254;49.144;8.212;2024-01-30T12:05:56;10.93;;;9.83;;
2486;SDS011;1254;49.144;8.212;2024-01-30T12:08:24;11.93;;;10.97;;
2486;SDS011;1254;49.144;8.212;2024-01-30T12:10:56;12.03;;;10.93;;
2486;SDS011;1254;49.144;8.212;2024-01-30T12:13:27;12.07;;;10.97;;
2486;SDS011;1254;49.144;8.212;2024-01-30T12:15:56;11.73;;;10.73;;
2486;SDS011;1254;49.144;8.212;2024-01-30T12:18:24;11.87;;;10.87;;
2486;SDS011;1254;49.144;8.212;2024-01-30T12:21:03;12.67;;;11.60;;
2486;SDS011;1254;49.144;8.212;2024-01-30T12:23:31;11.70;;;10.90;;
2486;SDS011;1254;49.144;8.212;2024-01-30T12:26:00;16.63;;;14.37;;
2486;SDS011;1254;49.144;8.212;2024-01-30T12:28:29;15.77;;;14.20;;
2486;SDS011;1254;49.144;8.212;2024-01-30T12:31:00;14.53;;;13.27;;
2486;SDS011;1254;49.144;8.212;2024-01-30T12:33:29;14.23;;;13.03;;
2486;SDS011;1254;49.144;8.212;2024-01-30T12:35:57;13.40;;;12.40;;
2486;SDS011;1254;49.144;8.212;2024-01-30T12:38:30;13.93;;;12.97;;
2486;SDS011;1254;49.144;8.212;2024-01-30T12:40:59;14.03;;;12.80;;
2486;SDS011;1254;49.144;8.212;2024-01-30T12:43:27;12.97;;;11.90;;
2486;SDS011;1254;49.144;8.212;2024-01-30T12:45:55;13.43;;;12.50;;
2486;SDS011;1254;49.144;8.212;2024-01-30T12:48:24;14.73;;;13.67;;
2486;SDS011;1254;49.144;8.212;2024-01-30T12:50:55;12.43;;;11.43;;
2486;SDS011;1254;49.144;8.212;2024-01-30T12:53:23;15.33;;;13.50;;
2486;SDS011;1254;49.144;8.212;2024-01-30T12:55:53;14.90;;;13.50;;
2486;SDS011;1254;49.144;8.212;2024-01-30T12:58:21;17.30;;;15.87;;
2486;SDS011;1254;49.144;8.212;2024-01-30T13:00:49;15.37;;;14.27;;
2486;SDS011;1254;49.144;8.212;2024-01-30T13:03:17;16.60;;;15.23;;
2486;SDS011;1254;49.144;8.212;2024-01-30T13:05:46;38.27;;;14.73;;
2486;SDS011;1254;49.144;8.212;2024-01-30T13:08:14;15.03;;;13.57;;
2486;SDS011;1254;49.144;8.212;2024-01-30T13:10:42;17.43;;;13.63;;
2486;SDS011;1254;49.144;8.212;2024-01-30T13:13:12;15.57;;;12.63;;
2486;SDS011;1254;49.144;8.212;2024-01-30T13:15:40;14.20;;;12.90;;
2486;SDS011;1254;49.144;8.212;2024-01-30T13:18:08;15.47;;;13.80;;
2486;SDS011;1254;49.144;8.212;2024-01-30T13:20:36;13.27;;;12.17;;
2486;SDS011;1254;49.144;8.212;2024-01-30T13:23:04;14.40;;;12.83;;
2486;SDS011;1254;49.144;8.212;2024-01-30T13:25:33;12.27;;;11.40;;
2486;SDS011;1254;49.144;8.212;2024-01-30T13:28:01;12.37;;;11.43;;
2486;SDS011;1254;49.144;8.212;2024-01-30T13:30:31;12.17;;;11.27;;
2486;SDS011;1254;49.144;8.212;2024-01-30T13:32:59;13.23;;;12.13;;
2486;SDS011;1254;49.144;8.212;2024-01-30T13:35:28;13.67;;;12.47;;
2486;SDS011;1254;49.144;8.212;2024-01-30T13:37:57;12.93;;;11.73;;
2486;SDS011;1254;49.144;8.212;2024-01-30T13:40:25;12.60;;;11.60;;
2486;SDS011;1254;49.144;8.212;2024-01-30T13:42:53;12.70;;;11.47;;
2486;SDS011;1254;49.144;8.212;2024-01-30T13:45:21;12.37;;;11.23;;
2486;SDS011;1254;49.144;8.212;2024-01-30T13:47:51;11.83;;;10.83;;
2486;SDS011;1254;49.144;8.212;2024-01-30T13:50:19;11.20;;;10.37;;
2486;SDS011;1254;49.144;8.212;2024-01-30T13:52:47;13.87;;;12.60;;
2486;SDS011;1254;49.144;8.212;2024-01-30T13:55:16;11.00;;;10.10;;
2486;SDS011;1254;49.144;8.212;2024-01-30T13:57:44;15.90;;;11.67;;
2486;SDS011;1254;49.144;8.212;2024-01-30T14:00:12;12.17;;;11.13;;
2486;SDS011;1254;49.144;8.212;2024-01-30T14:02:42;11.83;;;10.87;;
2486;SDS011;1254;49.144;8.212;2024-01-30T14:05:12;11.50;;;10.60;;
2486;SDS011;1254;49.144;8.212;2024-01-30T14:07:40;13.27;;;12.13;;
2486;SDS011;1254;49.144;8.212;2024-01-30T14:10:09;11.87;;;10.67;;
2486;SDS011;1254;49.144;8.212;2024-01-30T14:12:37;10.87;;;9.80;;
2486;SDS011;1254;49.144;8.212;2024-01-30T14:15:07;11.00;;;10.13;;
2486;SDS011;1254;49.144;8.212;2024-01-30T14:17:36;11.30;;;10.40;;
2486;SDS011;1254;49.144;8.212;2024-01-30T14:20:05;12.27;;;11.17;;
2486;SDS011;1254;49.144;8.212;2024-01-30T14:22:35;11.10;;;10.10;;
2486;SDS011;1254;49.144;8.212;2024-01-30T14:25:04;12.20;;;10.30;;
2486;SDS011;1254;49.144;8.212;2024-01-30T14:27:32;11.60;;;10.80;;
2486;SDS011;1254;49.144;8.212;2024-01-30T14:30:00;11.40;;;10.40;;
2486;SDS011;1254;49.144;8.212;2024-01-30T14:32:29;11.30;;;10.27;;
2486;SDS011;1254;49.144;8.212;2024-01-30T14:34:57;11.10;;;10.13;;
2486;SDS011;1254;49.144;8.212;2024-01-30T14:37:25;12.13;;;11.10;;
2486;SDS011;1254;49.144;8.212;2024-01-30T14:39:57;11.75;;;10.07;;
2486;SDS011;1254;49.144;8.212;2024-01-30T14:42:25;12.20;;;9.63;;
2486;SDS011;1254;49.144;8.212;2024-01-30T14:44:57;11.63;;;10.52;;
2486;SDS011;1254;49.144;8.212;2024-01-30T14:47:25;12.20;;;11.03;;
2486;SDS011;1254;49.144;8.212;2024-01-30T14:49:53;11.87;;;10.67;;
2486;SDS011;1254;49.144;8.212;2024-01-30T14:52:22;10.67;;;9.73;;
2486;SDS011;1254;49.144;8.212;2024-01-30T14:54:50;14.07;;;11.88;;
2486;SDS011;1254;49.144;8.212;2024-01-30T14:57:20;12.63;;;11.33;;